CheckWX is a tool to help pilots better visualize weather data.  It is not intended as a substitute for an official pre-flight weather briefing.

18:03:24 UTC

EGGD TAF
Bristol International Airport
Bristol, United Kingdom
TAF EGGD 171700Z 1718/1818 20012KT 9999 SCT020 PROB40 TEMPO 1800/1809 BKN005 TEMPO 1804/1816 6000 SHRA BKN010 PROB30 TEMPO 1813/1816 3000 +SHRA SHGS BKN008

Feb-17@
18:00 UTC

Feb-17 @ 18:00 UTC

Feb-18@
18:00 UTC

Feb-18 @ 18:00 UTC

TAF EGGD 171700Z 1718/1818 20012KT 9999 SCT020
Wind
  • 200° at 12 KTS
Visibility
10,000+ meters
Cloud Levels
  • Scattered at 2,000' AGL

Feb-18@
00:00 UTC

Feb-18 @ 00:00 UTC

Feb-18@
09:00 UTC

Feb-18 @ 09:00 UTC

PROB40 TEMPO 1800/1809 BKN005

Temporary - 40% Likelihood

Temporary - 40% Likelihood during this time.

Cloud Levels
  • Broken at 500' AGL

Feb-18@
04:00 UTC

Feb-18 @ 04:00 UTC

Feb-18@
16:00 UTC

Feb-18 @ 16:00 UTC

TEMPO 1804/1816 6000 SHRA BKN010

Temporary

TemporaryChanges expected for less than half the time period

Visibility
6,003 meters
Conditions
Rain
Cloud Levels
  • Broken at 1,000' AGL

Feb-18@
13:00 UTC

Feb-18 @ 13:00 UTC

Feb-18@
16:00 UTC

Feb-18 @ 16:00 UTC

PROB30 TEMPO 1813/1816 3000 +SHRA SHGS BKN008

Temporary - 30% Likelihood

Temporary - 30% Likelihood during this time.

Visibility
2,993 meters
Conditions
Heavy Rain, Small hail
Cloud Levels
  • Broken at 800' AGL